Terminal Aerodrome Forecast
Issued by NWS

Home | Current Version | Previous Version | Text Only | Print | Product List | Glossary On
Versions: 1 2 3 4 5 6 7 8 9 10 11 12 13 14 15 16 17 18 19 20 21 22 23 24 25 26 27 28 29 30 31 32 33 34 35 36 37 38 39 40 41 42 43 44 45 46 47 48 49 50
000
FTUS44 KHGX 182320
TAFCXO
TAF
KCXO 182320Z 1900/1924 17008KT P6SM VCSH SCT020 SCT035 BKN070
     FM190200 VRB04KT P6SM SCT025 BKN250
     FM190300 15003KT P6SM VCTS SCT015CB BKN250
     FM190900 VRB03KT 2SM BR SCT007
     FM191500 21009KT P6SM SCT020 BKN250
     FM191800 22014KT P6SM SCT025 BKN035 BKN250=

USA.gov is the U.S. government's official web portal to all federal, state and local government web resources and services.